sensor_id;sensor_type;location;lat;lon;timestamp;temperature;humidity
31729;DHT22;18309;43.658;1.312;2022-09-24T00:00:30;16.20;99.90
31729;DHT22;18309;43.658;1.312;2022-09-24T00:02:56;16.20;99.90
31729;DHT22;18309;43.658;1.312;2022-09-24T00:05:21;16.10;99.90
31729;DHT22;18309;43.658;1.312;2022-09-24T00:07:47;16.20;99.90
31729;DHT22;18309;43.658;1.312;2022-09-24T00:10:13;16.20;99.90
31729;DHT22;18309;43.658;1.312;2022-09-24T00:12:38;16.10;99.90
31729;DHT22;18309;43.658;1.312;2022-09-24T00:15:05;16.00;99.90
31729;DHT22;18309;43.658;1.312;2022-09-24T00:17:30;16.10;99.90
31729;DHT22;18309;43.658;1.312;2022-09-24T00:19:56;16.10;99.90
31729;DHT22;18309;43.658;1.312;2022-09-24T00:22:22;16.20;99.90
31729;DHT22;18309;43.658;1.312;2022-09-24T00:24:48;16.10;99.90
31729;DHT22;18309;43.658;1.312;2022-09-24T00:27:32;16.10;99.90
31729;DHT22;18309;43.658;1.312;2022-09-24T00:29:58;16.20;99.90
31729;DHT22;18309;43.658;1.312;2022-09-24T00:32:23;16.20;99.90
31729;DHT22;18309;43.658;1.312;2022-09-24T00:34:49;16.10;99.90
31729;DHT22;18309;43.658;1.312;2022-09-24T00:37:19;16.10;99.90
31729;DHT22;18309;43.658;1.312;2022-09-24T00:39:45;16.20;99.90
31729;DHT22;18309;43.658;1.312;2022-09-24T00:42:12;16.10;99.90
31729;DHT22;18309;43.658;1.312;2022-09-24T00:49:48;16.30;99.90
31729;DHT22;18309;43.658;1.312;2022-09-24T00:52:16;16.30;99.90
31729;DHT22;18309;43.658;1.312;2022-09-24T00:54:42;16.30;99.90
31729;DHT22;18309;43.658;1.312;2022-09-24T00:57:10;16.20;99.90
31729;DHT22;18309;43.658;1.312;2022-09-24T00:59:37;16.10;99.90
31729;DHT22;18309;43.658;1.312;2022-09-24T01:02:03;16.20;99.90
31729;DHT22;18309;43.658;1.312;2022-09-24T01:04:29;16.40;99.90
31729;DHT22;18309;43.658;1.312;2022-09-24T01:06:55;16.50;99.90
31729;DHT22;18309;43.658;1.312;2022-09-24T01:09:23;16.50;99.90
31729;DHT22;18309;43.658;1.312;2022-09-24T01:23:01;16.50;99.90
31729;DHT22;18309;43.658;1.312;2022-09-24T01:31:09;16.50;99.90
31729;DHT22;18309;43.658;1.312;2022-09-24T01:33:38;16.30;99.90
31729;DHT22;18309;43.658;1.312;2022-09-24T01:36:06;16.40;99.90
31729;DHT22;18309;43.658;1.312;2022-09-24T01:38:37;16.30;99.90
31729;DHT22;18309;43.658;1.312;2022-09-24T01:41:06;16.40;99.90
31729;DHT22;18309;43.658;1.312;2022-09-24T01:43:33;16.40;99.90
31729;DHT22;18309;43.658;1.312;2022-09-24T01:46:02;16.40;99.90
31729;DHT22;18309;43.658;1.312;2022-09-24T01:48:30;16.40;99.90
31729;DHT22;18309;43.658;1.312;2022-09-24T01:51:21;16.40;99.90
31729;DHT22;18309;43.658;1.312;2022-09-24T01:53:59;16.40;99.90
31729;DHT22;18309;43.658;1.312;2022-09-24T01:56:52;16.30;99.90
31729;DHT22;18309;43.658;1.312;2022-09-24T02:04:45;16.20;99.90
31729;DHT22;18309;43.658;1.312;2022-09-24T02:07:23;16.10;99.90
31729;DHT22;18309;43.658;1.312;2022-09-24T02:09:51;16.10;99.90
31729;DHT22;18309;43.658;1.312;2022-09-24T02:12:30;16.00;99.90
31729;DHT22;18309;43.658;1.312;2022-09-24T02:15:28;16.20;99.90
31729;DHT22;18309;43.658;1.312;2022-09-24T02:17:57;16.10;99.90
31729;DHT22;18309;43.658;1.312;2022-09-24T02:20:25;16.20;99.90
31729;DHT22;18309;43.658;1.312;2022-09-24T02:22:54;16.20;99.90
31729;DHT22;18309;43.658;1.312;2022-09-24T02:25:29;16.10;99.90
31729;DHT22;18309;43.658;1.312;2022-09-24T02:27:56;16.10;99.90
31729;DHT22;18309;43.658;1.312;2022-09-24T02:30:22;16.20;99.90
31729;DHT22;18309;43.658;1.312;2022-09-24T02:32:48;16.20;99.90
31729;DHT22;18309;43.658;1.312;2022-09-24T02:35:15;16.10;99.90
31729;DHT22;18309;43.658;1.312;2022-09-24T02:37:42;16.10;99.90
31729;DHT22;18309;43.658;1.312;2022-09-24T02:40:11;16.20;99.90
31729;DHT22;18309;43.658;1.312;2022-09-24T02:42:37;16.20;99.90
31729;DHT22;18309;43.658;1.312;2022-09-24T02:45:05;16.10;99.90
31729;DHT22;18309;43.658;1.312;2022-09-24T02:47:31;16.10;99.90
31729;DHT22;18309;43.658;1.312;2022-09-24T02:49:57;16.00;99.90
31729;DHT22;18309;43.658;1.312;2022-09-24T02:52:23;16.00;99.90
31729;DHT22;18309;43.658;1.312;2022-09-24T02:54:49;16.00;99.90
31729;DHT22;18309;43.658;1.312;2022-09-24T02:57:15;16.00;99.90
31729;DHT22;18309;43.658;1.312;2022-09-24T02:59:42;16.00;99.90
31729;DHT22;18309;43.658;1.312;2022-09-24T03:02:07;16.10;99.90
31729;DHT22;18309;43.658;1.312;2022-09-24T03:04:33;16.10;99.90
31729;DHT22;18309;43.658;1.312;2022-09-24T03:06:59;16.10;99.90
31729;DHT22;18309;43.658;1.312;2022-09-24T03:09:24;16.10;99.90
31729;DHT22;18309;43.658;1.312;2022-09-24T03:11:50;16.00;99.90
31729;DHT22;18309;43.658;1.312;2022-09-24T03:14:16;16.10;99.90
31729;DHT22;18309;43.658;1.312;2022-09-24T03:16:41;16.30;99.90
31729;DHT22;18309;43.658;1.312;2022-09-24T03:19:07;16.40;99.90
31729;DHT22;18309;43.658;1.312;2022-09-24T03:21:33;16.40;99.90
31729;DHT22;18309;43.658;1.312;2022-09-24T03:23:59;16.40;99.90
31729;DHT22;18309;43.658;1.312;2022-09-24T03:26:25;16.40;99.90
31729;DHT22;18309;43.658;1.312;2022-09-24T03:28:51;16.30;99.90
31729;DHT22;18309;43.658;1.312;2022-09-24T03:31:17;16.20;99.90
31729;DHT22;18309;43.658;1.312;2022-09-24T03:33:45;16.10;99.90
31729;DHT22;18309;43.658;1.312;2022-09-24T03:38:43;16.10;99.90
31729;DHT22;18309;43.658;1.312;2022-09-24T03:41:10;16.10;99.90
31729;DHT22;18309;43.658;1.312;2022-09-24T03:43:36;16.20;99.90
31729;DHT22;18309;43.658;1.312;2022-09-24T03:46:03;16.10;99.90
31729;DHT22;18309;43.658;1.312;2022-09-24T03:48:32;16.10;99.90
31729;DHT22;18309;43.658;1.312;2022-09-24T03:51:09;16.20;99.90
31729;DHT22;18309;43.658;1.312;2022-09-24T03:53:35;16.20;99.90
31729;DHT22;18309;43.658;1.312;2022-09-24T03:56:02;16.20;99.90
31729;DHT22;18309;43.658;1.312;2022-09-24T03:58:31;16.30;99.90
31729;DHT22;18309;43.658;1.312;2022-09-24T04:00:57;16.30;99.90
31729;DHT22;18309;43.658;1.312;2022-09-24T04:03:24;16.30;99.90
31729;DHT22;18309;43.658;1.312;2022-09-24T04:05:50;16.30;99.90
31729;DHT22;18309;43.658;1.312;2022-09-24T04:08:19;16.30;99.90
31729;DHT22;18309;43.658;1.312;2022-09-24T04:10:46;16.20;99.90
31729;DHT22;18309;43.658;1.312;2022-09-24T04:13:12;16.30;99.90
31729;DHT22;18309;43.658;1.312;2022-09-24T04:15:38;16.20;99.90
31729;DHT22;18309;43.658;1.312;2022-09-24T04:18:04;16.00;99.90
31729;DHT22;18309;43.658;1.312;2022-09-24T04:20:30;15.80;99.90
31729;DHT22;18309;43.658;1.312;2022-09-24T04:22:57;15.80;99.90
31729;DHT22;18309;43.658;1.312;2022-09-24T04:25:25;15.80;99.90
31729;DHT22;18309;43.658;1.312;2022-09-24T04:27:59;15.90;99.90
31729;DHT22;18309;43.658;1.312;2022-09-24T04:30:26;15.90;99.90
31729;DHT22;18309;43.658;1.312;2022-09-24T04:32:52;16.00;99.90
31729;DHT22;18309;43.658;1.312;2022-09-24T04:35:18;16.00;99.90
31729;DHT22;18309;43.658;1.312;2022-09-24T04:37:45;15.90;99.90
31729;DHT22;18309;43.658;1.312;2022-09-24T04:40:11;15.70;99.90
31729;DHT22;18309;43.658;1.312;2022-09-24T04:42:38;15.70;99.90
31729;DHT22;18309;43.658;1.312;2022-09-24T04:45:06;15.70;99.90
31729;DHT22;18309;43.658;1.312;2022-09-24T04:47:33;15.70;99.90
31729;DHT22;18309;43.658;1.312;2022-09-24T04:49:59;15.80;99.90
31729;DHT22;18309;43.658;1.312;2022-09-24T04:52:27;15.90;99.90
31729;DHT22;18309;43.658;1.312;2022-09-24T04:54:55;15.90;99.90
31729;DHT22;18309;43.658;1.312;2022-09-24T04:57:22;15.90;99.90
31729;DHT22;18309;43.658;1.312;2022-09-24T04:59:48;15.80;99.90
31729;DHT22;18309;43.658;1.312;2022-09-24T05:02:14;15.90;99.90
31729;DHT22;18309;43.658;1.312;2022-09-24T05:04:41;15.90;99.90
31729;DHT22;18309;43.658;1.312;2022-09-24T05:07:08;15.80;99.90
31729;DHT22;18309;43.658;1.312;2022-09-24T05:09:34;16.00;99.90
31729;DHT22;18309;43.658;1.312;2022-09-24T05:12:01;16.00;99.90
31729;DHT22;18309;43.658;1.312;2022-09-24T05:14:26;15.90;99.90
31729;DHT22;18309;43.658;1.312;2022-09-24T05:16:52;15.90;99.90
31729;DHT22;18309;43.658;1.312;2022-09-24T05:19:19;15.80;99.90
31729;DHT22;18309;43.658;1.312;2022-09-24T05:21:45;15.90;99.90
31729;DHT22;18309;43.658;1.312;2022-09-24T05:24:11;15.90;99.90
31729;DHT22;18309;43.658;1.312;2022-09-24T05:26:37;15.80;99.90
31729;DHT22;18309;43.658;1.312;2022-09-24T05:29:21;15.80;99.90
31729;DHT22;18309;43.658;1.312;2022-09-24T05:31:47;15.80;99.90
31729;DHT22;18309;43.658;1.312;2022-09-24T05:34:13;15.80;99.90
31729;DHT22;18309;43.658;1.312;2022-09-24T05:36:39;15.90;99.90
31729;DHT22;18309;43.658;1.312;2022-09-24T05:39:08;15.90;99.90
31729;DHT22;18309;43.658;1.312;2022-09-24T05:41:33;16.00;99.90
31729;DHT22;18309;43.658;1.312;2022-09-24T05:43:59;15.90;99.90
31729;DHT22;18309;43.658;1.312;2022-09-24T05:46:26;15.80;99.90
31729;DHT22;18309;43.658;1.312;2022-09-24T05:48:51;15.80;99.90
31729;DHT22;18309;43.658;1.312;2022-09-24T05:51:17;15.70;99.90
31729;DHT22;18309;43.658;1.312;2022-09-24T05:53:43;15.80;99.90
31729;DHT22;18309;43.658;1.312;2022-09-24T05:56:09;16.00;99.90
31729;DHT22;18309;43.658;1.312;2022-09-24T05:58:35;16.10;99.90
31729;DHT22;18309;43.658;1.312;2022-09-24T06:01:01;16.30;99.90
31729;DHT22;18309;43.658;1.312;2022-09-24T06:03:27;16.40;99.90
31729;DHT22;18309;43.658;1.312;2022-09-24T06:05:56;16.40;99.90
31729;DHT22;18309;43.658;1.312;2022-09-24T06:08:28;16.50;99.90
31729;DHT22;18309;43.658;1.312;2022-09-24T06:10:59;16.50;99.90
31729;DHT22;18309;43.658;1.312;2022-09-24T06:13:25;16.60;99.90
31729;DHT22;18309;43.658;1.312;2022-09-24T06:15:51;16.60;99.90
31729;DHT22;18309;43.658;1.312;2022-09-24T06:18:17;16.60;99.90
31729;DHT22;18309;43.658;1.312;2022-09-24T06:20:43;16.60;99.90
31729;DHT22;18309;43.658;1.312;2022-09-24T06:23:09;16.60;99.90
31729;DHT22;18309;43.658;1.312;2022-09-24T06:25:34;16.70;99.90
31729;DHT22;18309;43.658;1.312;2022-09-24T06:28:02;16.70;99.90
31729;DHT22;18309;43.658;1.312;2022-09-24T06:30:33;16.70;99.90
31729;DHT22;18309;43.658;1.312;2022-09-24T06:33:04;16.70;99.90
31729;DHT22;18309;43.658;1.312;2022-09-24T06:35:33;16.80;99.90
31729;DHT22;18309;43.658;1.312;2022-09-24T06:37:59;16.80;99.90
31729;DHT22;18309;43.658;1.312;2022-09-24T06:40:25;16.80;99.90
31729;DHT22;18309;43.658;1.312;2022-09-24T06:42:51;16.80;99.90
31729;DHT22;18309;43.658;1.312;2022-09-24T06:45:18;16.70;99.90
31729;DHT22;18309;43.658;1.312;2022-09-24T06:47:54;16.70;99.90
31729;DHT22;18309;43.658;1.312;2022-09-24T06:50:21;16.80;99.90
31729;DHT22;18309;43.658;1.312;2022-09-24T06:52:47;16.80;99.90
31729;DHT22;18309;43.658;1.312;2022-09-24T06:55:13;16.80;99.90
31729;DHT22;18309;43.658;1.312;2022-09-24T06:57:39;16.80;99.90
31729;DHT22;18309;43.658;1.312;2022-09-24T07:00:05;16.80;99.90
31729;DHT22;18309;43.658;1.312;2022-09-24T07:02:31;16.80;99.90
31729;DHT22;18309;43.658;1.312;2022-09-24T07:04:56;16.80;99.90
31729;DHT22;18309;43.658;1.312;2022-09-24T07:07:22;16.80;99.90
31729;DHT22;18309;43.658;1.312;2022-09-24T07:09:54;16.80;99.90
31729;DHT22;18309;43.658;1.312;2022-09-24T07:12:21;16.80;99.90
31729;DHT22;18309;43.658;1.312;2022-09-24T07:14:47;16.80;99.90
31729;DHT22;18309;43.658;1.312;2022-09-24T07:17:13;16.80;99.90
31729;DHT22;18309;43.658;1.312;2022-09-24T07:19:38;16.80;99.90
31729;DHT22;18309;43.658;1.312;2022-09-24T07:22:04;16.90;99.90
31729;DHT22;18309;43.658;1.312;2022-09-24T07:24:30;16.90;99.90
31729;DHT22;18309;43.658;1.312;2022-09-24T07:26:56;16.90;99.90
31729;DHT22;18309;43.658;1.312;2022-09-24T07:29:22;16.80;99.90
31729;DHT22;18309;43.658;1.312;2022-09-24T07:31:47;16.90;99.90
31729;DHT22;18309;43.658;1.312;2022-09-24T07:34:13;16.90;99.90
31729;DHT22;18309;43.658;1.312;2022-09-24T07:36:40;16.90;99.90
31729;DHT22;18309;43.658;1.312;2022-09-24T07:39:06;16.90;99.90
31729;DHT22;18309;43.658;1.312;2022-09-24T07:41:32;16.90;99.90
31729;DHT22;18309;43.658;1.312;2022-09-24T07:43:58;16.90;99.90
31729;DHT22;18309;43.658;1.312;2022-09-24T07:46:24;16.90;99.90
31729;DHT22;18309;43.658;1.312;2022-09-24T07:48:53;17.00;99.90
31729;DHT22;18309;43.658;1.312;2022-09-24T07:51:26;17.00;99.90
31729;DHT22;18309;43.658;1.312;2022-09-24T07:53:53;17.00;99.90
31729;DHT22;18309;43.658;1.312;2022-09-24T07:56:20;17.00;99.90
31729;DHT22;18309;43.658;1.312;2022-09-24T07:58:50;17.10;99.90
31729;DHT22;18309;43.658;1.312;2022-09-24T08:01:16;17.10;99.90
31729;DHT22;18309;43.658;1.312;2022-09-24T08:03:45;17.10;99.90
31729;DHT22;18309;43.658;1.312;2022-09-24T08:06:11;17.10;99.90
31729;DHT22;18309;43.658;1.312;2022-09-24T08:08:37;17.10;99.90
31729;DHT22;18309;43.658;1.312;2022-09-24T08:11:08;17.20;99.90
31729;DHT22;18309;43.658;1.312;2022-09-24T08:13:35;17.20;99.90
31729;DHT22;18309;43.658;1.312;2022-09-24T08:16:02;17.30;99.90
31729;DHT22;18309;43.658;1.312;2022-09-24T08:18:29;17.30;99.90
31729;DHT22;18309;43.658;1.312;2022-09-24T08:21:05;17.30;99.90
31729;DHT22;18309;43.658;1.312;2022-09-24T08:23:33;17.40;99.90
31729;DHT22;18309;43.658;1.312;2022-09-24T08:25:58;17.40;99.90
31729;DHT22;18309;43.658;1.312;2022-09-24T08:28:25;17.50;99.90
31729;DHT22;18309;43.658;1.312;2022-09-24T08:30:51;17.50;99.90
31729;DHT22;18309;43.658;1.312;2022-09-24T08:33:17;17.50;99.90
31729;DHT22;18309;43.658;1.312;2022-09-24T08:35:42;17.60;99.90
31729;DHT22;18309;43.658;1.312;2022-09-24T08:38:08;17.60;99.90
31729;DHT22;18309;43.658;1.312;2022-09-24T08:40:43;17.60;99.90
31729;DHT22;18309;43.658;1.312;2022-09-24T08:43:17;17.70;99.90
31729;DHT22;18309;43.658;1.312;2022-09-24T08:45:55;17.70;99.90
31729;DHT22;18309;43.658;1.312;2022-09-24T08:48:45;17.70;99.90
31729;DHT22;18309;43.658;1.312;2022-09-24T08:51:19;17.80;99.90
31729;DHT22;18309;43.658;1.312;2022-09-24T08:56:35;17.80;99.90
31729;DHT22;18309;43.658;1.312;2022-09-24T08:59:06;17.80;99.90
31729;DHT22;18309;43.658;1.312;2022-09-24T09:01:42;17.90;99.90
31729;DHT22;18309;43.658;1.312;2022-09-24T09:12:37;18.00;99.90
31729;DHT22;18309;43.658;1.312;2022-09-24T09:15:13;18.00;99.90
31729;DHT22;18309;43.658;1.312;2022-09-24T09:20:40;18.10;99.90
31729;DHT22;18309;43.658;1.312;2022-09-24T09:23:27;18.10;99.90
31729;DHT22;18309;43.658;1.312;2022-09-24T09:25:56;18.10;99.90
31729;DHT22;18309;43.658;1.312;2022-09-24T09:28:25;18.20;99.90
31729;DHT22;18309;43.658;1.312;2022-09-24T09:31:15;18.20;99.90
31729;DHT22;18309;43.658;1.312;2022-09-24T09:42:06;18.40;99.90
31729;DHT22;18309;43.658;1.312;2022-09-24T09:44:39;18.40;99.90
31729;DHT22;18309;43.658;1.312;2022-09-24T09:47:52;18.50;99.90
31729;DHT22;18309;43.658;1.312;2022-09-24T09:50:29;18.50;99.90
31729;DHT22;18309;43.658;1.312;2022-09-24T09:52:56;18.60;99.90
31729;DHT22;18309;43.658;1.312;2022-09-24T09:55:29;18.60;99.90
31729;DHT22;18309;43.658;1.312;2022-09-24T09:58:19;18.70;99.90
31729;DHT22;18309;43.658;1.312;2022-09-24T10:00:46;18.70;99.90
31729;DHT22;18309;43.658;1.312;2022-09-24T10:03:21;18.70;99.90
31729;DHT22;18309;43.658;1.312;2022-09-24T10:05:57;18.80;99.90
31729;DHT22;18309;43.658;1.312;2022-09-24T10:08:24;18.80;99.90
31729;DHT22;18309;43.658;1.312;2022-09-24T10:10:57;18.80;99.90
31729;DHT22;18309;43.658;1.312;2022-09-24T10:13:24;18.80;99.90
31729;DHT22;18309;43.658;1.312;2022-09-24T10:16:02;18.90;99.90
31729;DHT22;18309;43.658;1.312;2022-09-24T10:18:29;18.90;99.90
31729;DHT22;18309;43.658;1.312;2022-09-24T10:20:58;18.90;99.90
31729;DHT22;18309;43.658;1.312;2022-09-24T10:23:39;19.00;99.90
31729;DHT22;18309;43.658;1.312;2022-09-24T10:26:07;19.00;99.90
31729;DHT22;18309;43.658;1.312;2022-09-24T10:28:38;19.00;99.90
31729;DHT22;18309;43.658;1.312;2022-09-24T10:31:27;19.10;99.90
31729;DHT22;18309;43.658;1.312;2022-09-24T10:33:55;19.10;99.90
31729;DHT22;18309;43.658;1.312;2022-09-24T10:36:26;19.10;99.90
31729;DHT22;18309;43.658;1.312;2022-09-24T10:41:32;19.20;99.90
31729;DHT22;18309;43.658;1.312;2022-09-24T10:44:07;19.30;99.90
31729;DHT22;18309;43.658;1.312;2022-09-24T11:00:38;19.50;99.90
31729;DHT22;18309;43.658;1.312;2022-09-24T11:06:08;19.60;99.90
31729;DHT22;18309;43.658;1.312;2022-09-24T11:09:02;19.70;99.90
31729;DHT22;18309;43.658;1.312;2022-09-24T11:14:16;19.70;99.90
31729;DHT22;18309;43.658;1.312;2022-09-24T11:20:05;19.80;99.90
31729;DHT22;18309;43.658;1.312;2022-09-24T11:22:59;19.80;99.90
31729;DHT22;18309;43.658;1.312;2022-09-24T11:42:44;20.10;99.90
31729;DHT22;18309;43.658;1.312;2022-09-24T11:45:34;20.10;99.90
31729;DHT22;18309;43.658;1.312;2022-09-24T11:48:11;20.10;99.90
31729;DHT22;18309;43.658;1.312;2022-09-24T11:50:48;20.20;99.90
31729;DHT22;18309;43.658;1.312;2022-09-24T11:55:55;20.20;99.90
31729;DHT22;18309;43.658;1.312;2022-09-24T11:58:27;20.20;99.90
31729;DHT22;18309;43.658;1.312;2022-09-24T12:01:02;20.30;99.90
31729;DHT22;18309;43.658;1.312;2022-09-24T12:06:14;20.30;99.80
31729;DHT22;18309;43.658;1.312;2022-09-24T12:08:54;20.40;99.50
31729;DHT22;18309;43.658;1.312;2022-09-24T12:11:32;20.40;99.30
31729;DHT22;18309;43.658;1.312;2022-09-24T12:14:27;20.40;99.30
31729;DHT22;18309;43.658;1.312;2022-09-24T12:17:03;20.40;99.30
31729;DHT22;18309;43.658;1.312;2022-09-24T12:19:35;20.50;99.40
31729;DHT22;18309;43.658;1.312;2022-09-24T12:22:03;20.50;99.40
31729;DHT22;18309;43.658;1.312;2022-09-24T12:24:40;20.50;99.50
31729;DHT22;18309;43.658;1.312;2022-09-24T12:27:19;20.60;99.90
31729;DHT22;18309;43.658;1.312;2022-09-24T12:32:59;20.70;99.90
31729;DHT22;18309;43.658;1.312;2022-09-24T12:38:08;20.70;99.90
31729;DHT22;18309;43.658;1.312;2022-09-24T12:43:51;20.80;99.90
31729;DHT22;18309;43.658;1.312;2022-09-24T12:46:38;20.90;99.90
31729;DHT22;18309;43.658;1.312;2022-09-24T12:49:34;20.90;99.90
31729;DHT22;18309;43.658;1.312;2022-09-24T12:52:03;20.90;99.80
31729;DHT22;18309;43.658;1.312;2022-09-24T12:54:40;20.90;99.40
31729;DHT22;18309;43.658;1.312;2022-09-24T12:59:33;20.90;99.60
31729;DHT22;18309;43.658;1.312;2022-09-24T13:02:18;20.90;99.40
31729;DHT22;18309;43.658;1.312;2022-09-24T13:10:33;20.80;98.40
31729;DHT22;18309;43.658;1.312;2022-09-24T13:13:20;20.80;98.00
31729;DHT22;18309;43.658;1.312;2022-09-24T13:16:04;20.80;97.60
31729;DHT22;18309;43.658;1.312;2022-09-24T13:18:32;20.90;98.40
31729;DHT22;18309;43.658;1.312;2022-09-24T13:21:07;20.90;98.60
31729;DHT22;18309;43.658;1.312;2022-09-24T13:26:04;21.00;97.30
31729;DHT22;18309;43.658;1.312;2022-09-24T13:28:51;21.00;96.70
31729;DHT22;18309;43.658;1.312;2022-09-24T13:31:43;21.00;95.40
31729;DHT22;18309;43.658;1.312;2022-09-24T13:34:14;21.00;95.50
31729;DHT22;18309;43.658;1.312;2022-09-24T13:37:10;21.00;96.00
31729;DHT22;18309;43.658;1.312;2022-09-24T13:39:44;21.10;94.80
31729;DHT22;18309;43.658;1.312;2022-09-24T13:42:23;21.00;94.10
31729;DHT22;18309;43.658;1.312;2022-09-24T13:44:56;21.00;94.00
31729;DHT22;18309;43.658;1.312;2022-09-24T13:50:11;21.00;93.50
31729;DHT22;18309;43.658;1.312;2022-09-24T13:55:57;21.00;94.80
31729;DHT22;18309;43.658;1.312;2022-09-24T14:00:53;21.00;96.00
31729;DHT22;18309;43.658;1.312;2022-09-24T14:05:49;21.00;96.40
31729;DHT22;18309;43.658;1.312;2022-09-24T14:08:20;21.00;96.30
31729;DHT22;18309;43.658;1.312;2022-09-24T14:10:47;20.90;96.50
31729;DHT22;18309;43.658;1.312;2022-09-24T14:13:22;20.90;95.80
31729;DHT22;18309;43.658;1.312;2022-09-24T14:15:59;21.00;95.60
31729;DHT22;18309;43.658;1.312;2022-09-24T14:18:27;21.00;95.20
31729;DHT22;18309;43.658;1.312;2022-09-24T14:21:24;20.90;94.80
31729;DHT22;18309;43.658;1.312;2022-09-24T14:23:57;20.90;94.40
31729;DHT22;18309;43.658;1.312;2022-09-24T14:29:21;20.90;94.20
31729;DHT22;18309;43.658;1.312;2022-09-24T14:31:56;20.90;94.00
31729;DHT22;18309;43.658;1.312;2022-09-24T14:37:20;20.90;94.50
31729;DHT22;18309;43.658;1.312;2022-09-24T14:39:48;20.80;94.30
31729;DHT22;18309;43.658;1.312;2022-09-24T14:42:28;20.80;94.50
31729;DHT22;18309;43.658;1.312;2022-09-24T14:44:55;20.70;94.30
31729;DHT22;18309;43.658;1.312;2022-09-24T14:47:32;20.70;94.40
31729;DHT22;18309;43.658;1.312;2022-09-24T14:50:01;20.70;94.60
31729;DHT22;18309;43.658;1.312;2022-09-24T14:52:38;20.60;94.70
31729;DHT22;18309;43.658;1.312;2022-09-24T14:57:40;20.50;95.40
31729;DHT22;18309;43.658;1.312;2022-09-24T15:00:29;20.40;95.40
31729;DHT22;18309;43.658;1.312;2022-09-24T15:05:28;20.30;96.00
31729;DHT22;18309;43.658;1.312;2022-09-24T15:10:52;20.20;96.70
31729;DHT22;18309;43.658;1.312;2022-09-24T15:13:23;20.10;96.80
31729;DHT22;18309;43.658;1.312;2022-09-24T15:18:43;20.00;97.00
31729;DHT22;18309;43.658;1.312;2022-09-24T15:21:09;20.00;97.00
31729;DHT22;18309;43.658;1.312;2022-09-24T15:23:37;20.00;97.20
31729;DHT22;18309;43.658;1.312;2022-09-24T15:26:05;19.90;97.20
31729;DHT22;18309;43.658;1.312;2022-09-24T15:28:31;19.90;97.40
31729;DHT22;18309;43.658;1.312;2022-09-24T15:30:57;19.90;97.50
31729;DHT22;18309;43.658;1.312;2022-09-24T15:33:23;19.90;97.70
31729;DHT22;18309;43.658;1.312;2022-09-24T15:35:48;19.90;97.90
31729;DHT22;18309;43.658;1.312;2022-09-24T15:38:16;19.80;98.00
31729;DHT22;18309;43.658;1.312;2022-09-24T15:40:42;19.80;97.90
31729;DHT22;18309;43.658;1.312;2022-09-24T15:43:22;19.80;97.90
31729;DHT22;18309;43.658;1.312;2022-09-24T15:45:48;19.70;97.90
31729;DHT22;18309;43.658;1.312;2022-09-24T15:48:14;19.60;97.50
31729;DHT22;18309;43.658;1.312;2022-09-24T15:50:41;19.70;97.40
31729;DHT22;18309;43.658;1.312;2022-09-24T15:53:16;19.60;97.60
31729;DHT22;18309;43.658;1.312;2022-09-24T15:55:44;19.60;97.70
31729;DHT22;18309;43.658;1.312;2022-09-24T15:58:13;19.50;97.70
31729;DHT22;18309;43.658;1.312;2022-09-24T16:00:39;19.60;97.40
31729;DHT22;18309;43.658;1.312;2022-09-24T16:03:05;19.50;97.40
31729;DHT22;18309;43.658;1.312;2022-09-24T16:05:30;19.50;97.20
31729;DHT22;18309;43.658;1.312;2022-09-24T16:07:56;19.40;97.30
31729;DHT22;18309;43.658;1.312;2022-09-24T16:10:22;19.50;97.50
31729;DHT22;18309;43.658;1.312;2022-09-24T16:12:49;19.40;97.50
31729;DHT22;18309;43.658;1.312;2022-09-24T16:15:19;19.40;97.50
31729;DHT22;18309;43.658;1.312;2022-09-24T16:17:46;19.40;97.50
31729;DHT22;18309;43.658;1.312;2022-09-24T16:20:14;19.40;97.70
31729;DHT22;18309;43.658;1.312;2022-09-24T16:22:40;19.30;97.80
31729;DHT22;18309;43.658;1.312;2022-09-24T16:25:06;19.30;98.10
31729;DHT22;18309;43.658;1.312;2022-09-24T16:27:33;19.30;97.90
31729;DHT22;18309;43.658;1.312;2022-09-24T16:30:00;19.20;98.00
31729;DHT22;18309;43.658;1.312;2022-09-24T16:32:26;19.30;98.10
31729;DHT22;18309;43.658;1.312;2022-09-24T16:34:52;19.20;98.20
31729;DHT22;18309;43.658;1.312;2022-09-24T16:37:19;19.20;98.30
31729;DHT22;18309;43.658;1.312;2022-09-24T16:39:45;19.20;98.50
31729;DHT22;18309;43.658;1.312;2022-09-24T16:42:12;19.20;98.60
31729;DHT22;18309;43.658;1.312;2022-09-24T16:44:37;19.20;98.80
31729;DHT22;18309;43.658;1.312;2022-09-24T16:47:03;19.20;98.80
31729;DHT22;18309;43.658;1.312;2022-09-24T16:49:29;19.10;99.00
31729;DHT22;18309;43.658;1.312;2022-09-24T16:51:54;19.20;99.00
31729;DHT22;18309;43.658;1.312;2022-09-24T16:54:20;19.10;99.10
31729;DHT22;18309;43.658;1.312;2022-09-24T16:56:50;19.20;99.20
31729;DHT22;18309;43.658;1.312;2022-09-24T16:59:17;19.10;99.20
31729;DHT22;18309;43.658;1.312;2022-09-24T17:01:43;19.10;99.30
31729;DHT22;18309;43.658;1.312;2022-09-24T17:04:09;19.10;99.40
31729;DHT22;18309;43.658;1.312;2022-09-24T17:06:35;19.10;99.40
31729;DHT22;18309;43.658;1.312;2022-09-24T17:09:01;19.10;99.50
31729;DHT22;18309;43.658;1.312;2022-09-24T17:11:45;19.10;99.60
31729;DHT22;18309;43.658;1.312;2022-09-24T17:14:14;19.10;99.70
31729;DHT22;18309;43.658;1.312;2022-09-24T17:16:41;19.00;99.90
31729;DHT22;18309;43.658;1.312;2022-09-24T17:19:08;19.00;99.70
31729;DHT22;18309;43.658;1.312;2022-09-24T17:21:35;19.00;99.70
31729;DHT22;18309;43.658;1.312;2022-09-24T17:24:01;19.00;99.80
31729;DHT22;18309;43.658;1.312;2022-09-24T17:26:27;19.00;99.90
31729;DHT22;18309;43.658;1.312;2022-09-24T17:28:53;18.90;99.80
31729;DHT22;18309;43.658;1.312;2022-09-24T17:31:22;18.90;99.90
31729;DHT22;18309;43.658;1.312;2022-09-24T17:33:57;18.90;99.90
31729;DHT22;18309;43.658;1.312;2022-09-24T17:36:23;18.80;99.90
31729;DHT22;18309;43.658;1.312;2022-09-24T17:38:49;18.80;99.90
31729;DHT22;18309;43.658;1.312;2022-09-24T17:41:16;18.80;99.90
31729;DHT22;18309;43.658;1.312;2022-09-24T17:43:42;18.80;99.90
31729;DHT22;18309;43.658;1.312;2022-09-24T17:46:12;18.80;99.90
31729;DHT22;18309;43.658;1.312;2022-09-24T17:48:40;18.80;99.90
31729;DHT22;18309;43.658;1.312;2022-09-24T17:51:12;18.80;99.90
31729;DHT22;18309;43.658;1.312;2022-09-24T17:53:39;18.80;99.90
31729;DHT22;18309;43.658;1.312;2022-09-24T17:56:06;18.70;99.90
31729;DHT22;18309;43.658;1.312;2022-09-24T17:58:35;18.70;99.90
31729;DHT22;18309;43.658;1.312;2022-09-24T18:01:07;18.70;99.50
31729;DHT22;18309;43.658;1.312;2022-09-24T18:03:33;18.60;98.90
31729;DHT22;18309;43.658;1.312;2022-09-24T18:06:01;18.60;98.80
31729;DHT22;18309;43.658;1.312;2022-09-24T18:08:27;18.60;98.80
31729;DHT22;18309;43.658;1.312;2022-09-24T18:11:15;18.60;98.70
31729;DHT22;18309;43.658;1.312;2022-09-24T18:13:42;18.50;98.60